createdAt,value
2022-10-11T00:01:39.441Z,2.40
2022-10-11T00:04:18.271Z,2.03
2022-10-11T00:06:58.293Z,2.33
2022-10-11T00:09:39.021Z,2.63
2022-10-11T00:12:17.456Z,2.88
2022-10-11T00:14:55.673Z,2.10
2022-10-11T00:17:34.512Z,2.53
2022-10-11T00:20:12.978Z,2.42
2022-10-11T00:22:50.487Z,2.72
2022-10-11T00:25:28.615Z,2.13
2022-10-11T00:28:07.065Z,2.60
2022-10-11T00:30:45.010Z,2.28
2022-10-11T00:33:23.384Z,2.00
2022-10-11T00:36:01.805Z,2.75
2022-10-11T00:38:39.736Z,2.72
2022-10-11T00:41:18.492Z,2.95
2022-10-11T00:44:16.743Z,2.25
2022-10-11T00:47:10.361Z,2.45
2022-10-11T00:49:55.416Z,2.13
2022-10-11T00:52:42.001Z,2.92
2022-10-11T00:55:22.359Z,2.42
2022-10-11T00:58:00.858Z,2.42
2022-10-11T01:00:38.431Z,1.95
2022-10-11T01:03:20.160Z,2.50
2022-10-11T01:05:57.942Z,2.75
2022-10-11T01:08:37.879Z,2.72
2022-10-11T01:11:20.973Z,2.78
2022-10-11T01:14:22.771Z,2.92
2022-10-11T01:17:34.308Z,2.45
2022-10-11T01:20:32.871Z,2.72
2022-10-11T01:23:40.870Z,2.50
2022-10-11T01:26:59.874Z,3.17
2022-10-11T01:30:20.903Z,2.60
2022-10-11T01:33:30.119Z,2.55
2022-10-11T01:36:18.396Z,2.38
2022-10-11T01:39:04.907Z,2.88
2022-10-11T01:41:48.008Z,2.72
2022-10-11T01:44:27.117Z,3.13
2022-10-11T01:47:04.882Z,2.45
2022-10-11T01:49:42.541Z,2.28
2022-10-11T01:52:21.379Z,2.35
2022-10-11T01:55:39.212Z,2.72
2022-10-11T01:58:48.553Z,2.80
2022-10-11T02:01:33.419Z,3.13
2022-10-11T02:04:32.999Z,3.03
2022-10-11T02:07:52.796Z,2.67
2022-10-11T02:10:37.378Z,2.60
2022-10-11T02:13:25.607Z,2.38
2022-10-11T02:16:08.012Z,1.80
2022-10-11T02:18:50.273Z,2.53
2022-10-11T02:21:29.625Z,3.17
2022-10-11T02:24:22.143Z,2.33
2022-10-11T02:27:03.090Z,2.95
2022-10-11T02:29:45.191Z,3.15
2022-10-11T02:32:25.457Z,2.80
2022-10-11T02:35:03.483Z,3.03
2022-10-11T02:38:01.599Z,3.00
2022-10-11T02:40:44.447Z,3.67
2022-10-11T02:43:41.541Z,3.20
2022-10-11T02:46:20.117Z,2.70
2022-10-11T02:48:59.551Z,2.50
2022-10-11T02:51:37.498Z,2.80
2022-10-11T02:54:15.831Z,2.85
2022-10-11T02:56:53.940Z,3.35
2022-10-11T02:59:32.231Z,2.58
2022-10-11T03:02:10.440Z,3.00
2022-10-11T03:04:48.629Z,2.92
2022-10-11T03:07:26.872Z,3.22
2022-10-11T03:10:06.262Z,3.15
2022-10-11T03:12:43.355Z,3.17
2022-10-11T03:15:21.506Z,2.88
2022-10-11T03:18:12.532Z,3.05
2022-10-11T03:20:49.815Z,2.20
2022-10-11T03:23:28.156Z,3.05
2022-10-11T03:26:06.628Z,2.85
2022-10-11T03:28:44.541Z,3.08
2022-10-11T03:31:23.647Z,3.25
2022-10-11T03:34:00.939Z,3.00
2022-10-11T03:36:39.135Z,2.95
2022-10-11T03:39:17.523Z,3.13
2022-10-11T03:41:55.655Z,2.97
2022-10-11T03:44:33.847Z,3.50
2022-10-11T03:47:12.726Z,3.50
2022-10-11T03:49:50.216Z,3.08
2022-10-11T03:52:28.518Z,3.72
2022-10-11T03:55:07.257Z,3.03
2022-10-11T03:57:44.920Z,3.90
2022-10-11T04:00:23.182Z,3.95
2022-10-11T04:03:03.662Z,3.50
2022-10-11T04:05:41.399Z,3.55
2022-10-11T04:08:48.398Z,3.83
2022-10-11T04:11:26.943Z,3.53
2022-10-11T04:14:05.363Z,3.70
2022-10-11T04:16:43.110Z,3.85
2022-10-11T04:19:21.561Z,3.47
2022-10-11T04:21:59.494Z,3.92
2022-10-11T04:24:37.845Z,4.22
2022-10-11T04:27:15.981Z,3.65
2022-10-11T04:29:54.579Z,4.30
2022-10-11T04:32:32.597Z,4.55
2022-10-11T04:35:11.293Z,4.70
2022-10-11T04:37:48.864Z,4.65
2022-10-11T04:40:27.073Z,3.75
2022-10-11T04:43:05.262Z,4.43
2022-10-11T04:45:43.866Z,4.25
2022-10-11T04:48:21.730Z,4.65
2022-10-11T04:50:59.947Z,3.85
2022-10-11T04:53:38.148Z,3.80
2022-10-11T04:56:18.318Z,4.70
2022-10-11T04:58:56.215Z,4.10
2022-10-11T05:01:34.502Z,3.75
2022-10-11T05:04:12.637Z,4.07
2022-10-11T05:06:51.146Z,4.97
2022-10-11T05:09:29.147Z,4.15
2022-10-11T05:12:07.431Z,4.35
2022-10-11T05:14:45.615Z,5.82
2022-10-11T05:17:23.846Z,4.70
2022-10-11T05:20:14.557Z,4.97
2022-10-11T05:22:51.975Z,4.18
2022-10-11T05:25:30.306Z,4.53
2022-10-11T05:28:08.575Z,5.95
2022-10-11T05:30:46.753Z,5.00
2022-10-11T05:33:25.758Z,6.00
2022-10-11T05:36:03.738Z,5.15
2022-10-11T05:38:41.442Z,4.93
2022-10-11T05:41:22.355Z,6.18
2022-10-11T05:43:59.473Z,4.50
2022-10-11T05:46:37.619Z,4.75
2022-10-11T05:49:15.840Z,4.45
2022-10-11T05:51:54.153Z,4.00
2022-10-11T05:54:35.047Z,5.15
2022-10-11T05:57:12.183Z,5.20
2022-10-11T05:59:50.415Z,5.18
2022-10-11T06:02:28.771Z,4.90
2022-10-11T06:05:07.136Z,6.45
2022-10-11T06:07:47.256Z,5.03
2022-10-11T06:10:29.725Z,4.50
2022-10-11T06:13:09.341Z,5.55
2022-10-11T06:16:09.677Z,5.72
2022-10-11T06:19:10.264Z,5.15
2022-10-11T06:22:11.685Z,6.05
2022-10-11T06:25:18.380Z,5.40
2022-10-11T06:28:19.193Z,4.35
2022-10-11T06:31:14.787Z,4.68
2022-10-11T06:34:15.927Z,4.95
2022-10-11T06:37:10.333Z,4.97
2022-10-11T06:40:02.052Z,4.57
2022-10-11T06:42:57.975Z,5.15
2022-10-11T06:45:52.870Z,5.47
2022-10-11T06:48:49.051Z,5.47
2022-10-11T06:51:49.146Z,5.50
2022-10-11T06:54:45.566Z,4.63
2022-10-11T06:57:48.568Z,5.88
2022-10-11T07:00:52.528Z,6.18
2022-10-11T07:03:51.162Z,5.68
2022-10-11T07:06:43.298Z,4.30
2022-10-11T07:09:35.102Z,5.18
2022-10-11T07:12:30.636Z,4.78
2022-10-11T07:15:41.197Z,5.47
2022-10-11T07:18:36.633Z,4.25
2022-10-11T07:21:40.714Z,5.70
2022-10-11T07:24:38.654Z,4.13
2022-10-11T07:27:32.777Z,4.28
2022-10-11T07:30:33.416Z,4.65
2022-10-11T07:33:27.606Z,3.80
2022-10-11T07:36:25.427Z,4.05
2022-10-11T07:39:16.563Z,4.60
2022-10-11T07:42:13.357Z,3.97
2022-10-11T07:45:11.955Z,4.18
2022-10-11T07:48:09.290Z,4.30
2022-10-11T07:51:14.344Z,4.55
2022-10-11T07:54:20.349Z,4.65
2022-10-11T07:57:15.800Z,4.70
2022-10-11T08:00:12.416Z,4.65
2022-10-11T08:03:10.192Z,4.45
2022-10-11T08:06:13.382Z,5.45
2022-10-11T08:09:09.235Z,3.65
2022-10-11T08:12:03.887Z,3.58
2022-10-11T08:15:04.683Z,3.75
2022-10-11T08:18:07.794Z,4.93
2022-10-11T08:21:07.956Z,3.60
2022-10-11T08:24:07.697Z,4.85
2022-10-11T08:27:11.117Z,5.00
2022-10-11T08:30:06.751Z,4.10
2022-10-11T08:33:07.587Z,4.30
2022-10-11T08:36:09.916Z,3.28
2022-10-11T08:39:08.143Z,4.00
2022-10-11T08:42:13.104Z,3.78
2022-10-11T08:45:29.341Z,3.83
2022-10-11T08:48:55.440Z,3.17
2022-10-11T08:52:13.235Z,4.07
2022-10-11T08:55:40.105Z,3.33
2022-10-11T08:58:58.099Z,3.92
2022-10-11T09:02:00.396Z,3.78
2022-10-11T09:04:39.214Z,4.43
2022-10-11T09:07:44.998Z,3.80
2022-10-11T09:10:34.438Z,3.15
2022-10-11T09:13:37.971Z,3.08
2022-10-11T09:16:49.286Z,2.65
2022-10-11T09:19:59.138Z,3.20
2022-10-11T09:23:04.398Z,3.10
2022-10-11T09:25:55.654Z,3.75
2022-10-11T09:29:01.034Z,3.58
2022-10-11T09:31:51.751Z,3.38
2022-10-11T09:34:37.988Z,3.08
2022-10-11T09:37:38.326Z,3.13
2022-10-11T09:41:00.474Z,2.90
2022-10-11T09:43:49.532Z,3.47
2022-10-11T09:46:36.859Z,2.95
2022-10-11T09:49:29.015Z,2.90
2022-10-11T09:52:18.283Z,2.75
2022-10-11T09:55:04.146Z,3.17
2022-10-11T09:57:54.874Z,2.58
2022-10-11T10:00:40.466Z,2.60
2022-10-11T10:03:29.619Z,2.90
2022-10-11T10:06:22.133Z,3.22
2022-10-11T10:09:26.254Z,2.92
2022-10-11T10:12:21.591Z,3.38
2022-10-11T10:15:17.604Z,2.17
2022-10-11T10:18:05.982Z,2.97
2022-10-11T10:20:59.381Z,2.53
2022-10-11T10:23:44.904Z,2.28
2022-10-11T10:26:31.083Z,2.65
2022-10-11T10:29:20.981Z,2.45
2022-10-11T10:32:15.150Z,3.10
2022-10-11T10:35:13.195Z,2.90
2022-10-11T10:38:15.439Z,2.58
2022-10-11T10:41:08.942Z,2.25
2022-10-11T10:43:59.677Z,2.83
2022-10-11T10:47:03.589Z,2.67
2022-10-11T10:50:07.693Z,2.75
2022-10-11T10:53:13.038Z,3.20
2022-10-11T10:56:14.696Z,2.53
2022-10-11T10:59:14.005Z,3.30
2022-10-11T11:02:28.228Z,2.80
2022-10-11T11:05:23.292Z,2.53
2022-10-11T11:08:23.855Z,2.92
2022-10-11T11:11:27.510Z,2.22
2022-10-11T11:14:22.779Z,2.85
2022-10-11T11:17:45.071Z,3.08
2022-10-11T11:20:55.528Z,2.92
2022-10-11T11:24:04.898Z,1.90
2022-10-11T11:26:59.683Z,3.28
2022-10-11T11:30:03.392Z,1.73
2022-10-11T11:33:07.659Z,3.05
2022-10-11T11:35:56.370Z,2.97
2022-10-11T11:38:48.891Z,3.03
2022-10-11T11:41:43.460Z,2.20
2022-10-11T11:44:32.870Z,2.35
2022-10-11T11:47:33.059Z,3.10
2022-10-11T11:50:25.114Z,2.30
2022-10-11T11:53:18.009Z,2.05
2022-10-11T11:56:12.324Z,2.38
2022-10-11T11:59:18.720Z,2.50
2022-10-11T12:02:18.487Z,2.03
2022-10-11T12:05:07.339Z,2.38
2022-10-11T12:08:00.691Z,2.47
2022-10-11T12:10:49.081Z,3.08
2022-10-11T12:13:36.878Z,3.00
2022-10-11T12:16:23.076Z,2.63
2022-10-11T12:19:14.260Z,2.58
2022-10-11T12:22:17.974Z,2.58
2022-10-11T12:25:09.457Z,2.45
2022-10-11T12:27:56.923Z,2.50
2022-10-11T12:30:48.538Z,2.80
2022-10-11T12:33:33.979Z,2.63
2022-10-11T12:36:29.596Z,2.92
2022-10-11T12:39:20.766Z,2.10
2022-10-11T12:42:18.109Z,2.58
2022-10-11T12:45:12.881Z,2.78
2022-10-11T12:48:06.322Z,2.05
2022-10-11T12:51:28.662Z,2.33
2022-10-11T12:54:52.064Z,2.55
2022-10-11T12:58:12.355Z,1.83
2022-10-11T13:00:58.013Z,2.47
2022-10-11T13:04:03.170Z,2.22
2022-10-11T13:07:01.093Z,2.40
2022-10-11T13:09:53.992Z,2.50
2022-10-11T13:12:44.518Z,2.72
2022-10-11T13:15:31.287Z,2.80
2022-10-11T13:18:18.382Z,2.35
2022-10-11T13:21:21.467Z,2.90
2022-10-11T13:24:15.474Z,2.25
2022-10-11T13:27:03.372Z,2.88
2022-10-11T13:29:54.707Z,1.50
2022-10-11T13:32:43.088Z,2.60
2022-10-11T13:35:34.406Z,2.33
2022-10-11T13:38:37.652Z,1.80
2022-10-11T13:41:26.373Z,2.88
2022-10-11T13:44:16.854Z,2.30
2022-10-11T13:47:03.131Z,2.35
2022-10-11T13:50:30.382Z,2.20
2022-10-11T13:53:15.672Z,2.22
2022-10-11T13:56:05.239Z,2.53
2022-10-11T13:58:53.910Z,2.47
2022-10-11T14:01:45.311Z,2.40
2022-10-11T14:04:39.897Z,2.15
2022-10-11T14:07:31.790Z,2.13
2022-10-11T14:10:22.183Z,2.53
2022-10-11T14:13:25.136Z,2.22
2022-10-11T14:16:20.157Z,2.20
2022-10-11T14:19:10.662Z,2.30
2022-10-11T14:21:56.015Z,2.40
2022-10-11T14:24:42.871Z,2.13
2022-10-11T14:27:28.466Z,2.28
2022-10-11T14:30:26.433Z,2.25
2022-10-11T14:33:12.390Z,2.47
2022-10-11T14:35:57.603Z,2.05
2022-10-11T14:38:43.139Z,1.83
2022-10-11T14:41:28.583Z,3.08
2022-10-11T14:44:14.476Z,2.33
2022-10-11T14:46:59.942Z,2.15
2022-10-11T14:49:51.529Z,3.78
2022-10-11T14:52:37.025Z,5.78
2022-10-11T14:55:22.422Z,3.67
2022-10-11T14:58:08.890Z,3.22
2022-10-11T15:00:56.217Z,8.30
2022-10-11T15:03:41.804Z,8.52
2022-10-11T15:06:31.945Z,4.97
2022-10-11T15:09:20.776Z,8.10
2022-10-11T15:12:06.334Z,3.88
2022-10-11T15:14:53.767Z,3.13
2022-10-11T15:17:39.294Z,2.88
2022-10-11T15:20:27.713Z,2.00
2022-10-11T15:23:13.675Z,2.97
2022-10-11T15:26:01.775Z,3.08
2022-10-11T15:28:47.912Z,2.03
2022-10-11T15:31:33.258Z,2.22
2022-10-11T15:34:18.480Z,2.38
2022-10-11T15:37:03.673Z,2.42
2022-10-11T15:39:49.277Z,1.92
2022-10-11T15:42:34.857Z,2.65
2022-10-11T15:45:23.824Z,2.38
2022-10-11T15:48:14.297Z,3.22
2022-10-11T15:50:59.755Z,2.50
2022-10-11T15:53:47.384Z,2.45
2022-10-11T15:56:33.863Z,2.30
2022-10-11T15:59:19.405Z,2.53
2022-10-11T16:02:04.853Z,2.65
2022-10-11T16:04:50.075Z,2.40
2022-10-11T16:07:35.447Z,2.40
2022-10-11T16:10:21.492Z,2.63
2022-10-11T16:13:08.201Z,2.53
2022-10-11T16:19:18.514Z,3.67
2022-10-11T16:22:03.797Z,3.88
2022-10-11T16:24:49.311Z,2.53
2022-10-11T16:27:34.967Z,2.83
2022-10-11T16:30:20.834Z,2.58
2022-10-11T16:33:06.383Z,2.55
2022-10-11T16:35:51.501Z,3.40
2022-10-11T16:38:36.788Z,3.58
2022-10-11T16:41:22.149Z,3.20
2022-10-11T16:44:07.634Z,4.55
2022-10-11T16:46:53.015Z,5.28
2022-10-11T16:49:38.823Z,4.25
2022-10-11T16:52:24.241Z,3.83
2022-10-11T16:55:09.591Z,3.15
2022-10-11T16:57:55.082Z,3.58
2022-10-11T17:00:42.515Z,3.30
2022-10-11T17:03:29.807Z,3.72
2022-10-11T17:06:32.800Z,3.25
2022-10-11T17:09:18.163Z,3.00
2022-10-11T17:12:03.386Z,2.88
2022-10-11T17:14:50.334Z,3.42
2022-10-11T17:17:35.815Z,4.13
2022-10-11T17:20:21.060Z,4.35
2022-10-11T17:23:06.889Z,3.30
2022-10-11T17:25:52.367Z,3.65
2022-10-11T17:28:40.752Z,4.38
2022-10-11T17:31:28.058Z,5.47
2022-10-11T17:34:15.367Z,5.75
2022-10-11T17:37:00.841Z,5.50
2022-10-11T17:39:46.590Z,5.72
2022-10-11T17:42:32.099Z,5.18
2022-10-11T17:45:20.268Z,5.28
2022-10-11T17:48:05.854Z,4.47
2022-10-11T17:50:51.016Z,4.40
2022-10-11T17:53:36.420Z,4.57
2022-10-11T17:56:28.772Z,5.45
2022-10-11T17:59:16.912Z,6.20
2022-10-11T18:02:02.318Z,6.75
2022-10-11T18:04:47.625Z,6.72
2022-10-11T18:07:32.840Z,5.95
2022-10-11T18:10:18.206Z,6.53
2022-10-11T18:13:06.796Z,7.18
2022-10-11T18:15:53.754Z,8.27
2022-10-11T18:18:39.733Z,8.23
2022-10-11T18:21:29.982Z,9.57
2022-10-11T18:24:19.364Z,8.75
2022-10-11T18:27:04.692Z,9.40
2022-10-11T18:29:50.176Z,12.57
2022-10-11T18:32:35.703Z,10.68
2022-10-11T18:35:22.448Z,10.88
2022-10-11T18:38:08.065Z,9.38
2022-10-11T18:40:53.618Z,9.80
2022-10-11T18:43:39.216Z,9.45
2022-10-11T18:46:25.558Z,9.98
2022-10-11T18:49:10.786Z,9.98
2022-10-11T18:51:56.076Z,10.07
2022-10-11T18:54:41.246Z,9.02
2022-10-11T18:57:26.607Z,9.27
2022-10-11T19:00:38.955Z,8.60
2022-10-11T19:03:17.796Z,8.30
2022-10-11T19:06:08.926Z,7.93
2022-10-11T19:09:05.363Z,6.85
2022-10-11T19:11:52.530Z,6.43
2022-10-11T19:14:37.990Z,7.53
2022-10-11T19:17:23.292Z,8.25
2022-10-11T19:20:08.868Z,8.07
2022-10-11T19:22:54.306Z,6.95
2022-10-11T19:25:39.683Z,7.78
2022-10-11T19:28:25.231Z,7.28
2022-10-11T19:31:14.170Z,7.75
2022-10-11T19:33:59.624Z,7.53
2022-10-11T19:36:45.474Z,7.30
2022-10-11T19:39:31.606Z,8.38
2022-10-11T19:42:16.833Z,9.45
2022-10-11T19:45:02.251Z,9.60
2022-10-11T19:47:47.702Z,8.70
2022-10-11T19:50:33.385Z,9.85
2022-10-11T19:53:18.785Z,10.23
2022-10-11T19:56:07.570Z,9.30
2022-10-11T19:58:53.799Z,9.55
2022-10-11T20:01:40.311Z,9.40
2022-10-11T20:04:52.019Z,9.32
2022-10-11T20:07:31.103Z,9.43
2022-10-11T20:10:16.883Z,8.43
2022-10-11T20:13:01.941Z,8.45
2022-10-11T20:15:47.608Z,8.80
2022-10-11T20:18:33.216Z,8.45
2022-10-11T20:21:21.621Z,8.20
2022-10-11T20:24:08.462Z,7.95
2022-10-11T20:26:53.680Z,10.13
2022-10-11T20:29:39.088Z,10.15
2022-10-11T20:32:24.360Z,10.63
2022-10-11T20:35:10.170Z,11.35
2022-10-11T20:37:55.325Z,12.02
2022-10-11T20:40:40.932Z,12.20
2022-10-11T20:43:26.434Z,12.35
2022-10-11T20:46:14.854Z,12.80
2022-10-11T20:49:03.355Z,11.00
2022-10-11T20:51:49.260Z,11.25
2022-10-11T20:54:35.334Z,10.88
2022-10-11T20:57:20.738Z,10.13
2022-10-11T21:00:06.912Z,9.23
2022-10-11T21:02:52.244Z,9.25
2022-10-11T21:05:37.442Z,10.65
2022-10-11T21:08:23.239Z,8.80
2022-10-11T21:11:10.880Z,9.70
2022-10-11T21:14:01.411Z,9.00
2022-10-11T21:16:47.199Z,8.15
2022-10-11T21:19:32.371Z,8.13
2022-10-11T21:22:17.720Z,8.75
2022-10-11T21:25:03.540Z,7.40
2022-10-11T21:27:49.050Z,8.70
2022-10-11T21:30:34.542Z,9.45
2022-10-11T21:33:19.945Z,8.45
2022-10-11T21:36:10.366Z,8.35
2022-10-11T21:38:56.587Z,9.52
2022-10-11T21:41:42.301Z,8.40
2022-10-11T21:44:27.423Z,7.13
2022-10-11T21:47:12.743Z,8.40
2022-10-11T21:49:58.419Z,7.97
2022-10-11T21:52:43.567Z,7.85
2022-10-11T21:55:28.890Z,8.75
2022-10-11T21:58:14.009Z,8.45
2022-10-11T22:00:59.790Z,8.00
2022-10-11T22:03:45.563Z,8.57
2022-10-11T22:06:31.252Z,8.55
2022-10-11T22:09:16.609Z,8.43
2022-10-11T22:12:03.596Z,8.73
2022-10-11T22:14:49.002Z,8.48
2022-10-11T22:17:34.347Z,9.88
2022-10-11T22:20:19.789Z,8.50
2022-10-11T22:23:05.457Z,11.07
2022-10-11T22:25:50.889Z,11.63
2022-10-11T22:28:36.726Z,10.70
2022-10-11T22:31:22.863Z,10.15
2022-10-11T22:34:08.167Z,11.85
2022-10-11T22:36:53.436Z,9.63
2022-10-11T22:39:38.590Z,10.40
2022-10-11T22:42:27.580Z,10.98
2022-10-11T22:45:13.126Z,11.00
2022-10-11T22:47:58.511Z,11.07
2022-10-11T22:50:44.158Z,12.40
2022-10-11T22:53:30.390Z,11.23
2022-10-11T22:56:15.652Z,11.18
2022-10-11T22:59:00.984Z,11.00
2022-10-11T23:01:46.286Z,10.43
2022-10-11T23:04:31.611Z,10.32
2022-10-11T23:07:16.871Z,10.32
2022-10-11T23:10:02.915Z,10.52
2022-10-11T23:12:48.249Z,10.45
2022-10-11T23:15:33.669Z,11.10
2022-10-11T23:18:18.907Z,11.50
2022-10-11T23:21:05.708Z,9.52
2022-10-11T23:23:55.129Z,9.05
2022-10-11T23:26:40.492Z,9.52
2022-10-11T23:29:25.635Z,9.98
2022-10-11T23:32:11.620Z,8.70
2022-10-11T23:34:57.077Z,9.52
2022-10-11T23:37:42.172Z,10.10
2022-10-11T23:40:27.779Z,9.90
2022-10-11T23:43:13.107Z,8.73
2022-10-11T23:45:58.619Z,8.65
2022-10-11T23:48:43.923Z,9.10
2022-10-11T23:51:29.227Z,8.38
2022-10-11T23:54:18.772Z,8.75
2022-10-11T23:57:04.297Z,8.85
2022-10-11T23:59:49.301Z,8.63
